Auburn, Indiana
Current Conditions -  °F | °C
As of 1:15 AM on Sunday 26 Oct 2014 (Local Time) from KGWB Reporting Station
Clear Clear  
Wind Chill: 46°   Ceiling: Unl
Heat Index: 48°   Visibility: 10mi
Dew Point: 34°   Wind: 6mph
Humidity: 57%   Direction: 270°W
Pressure: 29.92"   Gusts: NA
Location:  41.37°N, 85.05°W
Report Text: KGWB 260515Z AUTO 27005KT 10SM CLR 09/01 A2992 RMK AO2
Loading
Personal Weather Stations






























Interactive Weather Map New forecast layout! Learn more

10-Day Weather Forecast

Advertisements
Track Severe Weather on mobile